createdAt,value
2023-05-03T00:00:24.682Z,4.9
2023-05-03T00:12:24.515Z,5.0
2023-05-03T00:24:24.527Z,3.5
2023-05-03T00:36:24.443Z,3.8
2023-05-03T00:48:24.990Z,3.9
2023-05-03T01:00:24.525Z,3.9
2023-05-03T01:12:24.417Z,3.9
2023-05-03T01:24:24.523Z,3.8
2023-05-03T01:36:24.868Z,3.5
2023-05-03T01:48:24.535Z,2.7
2023-05-03T02:00:24.472Z,2.7
2023-05-03T02:12:24.426Z,2.1
2023-05-03T02:24:24.430Z,1.9
2023-05-03T02:36:24.528Z,2.2
2023-05-03T02:48:24.512Z,2.0
2023-05-03T03:00:24.514Z,1.8
2023-05-03T03:12:24.513Z,1.6
2023-05-03T03:24:24.470Z,1.7
2023-05-03T03:36:24.532Z,1.0
2023-05-03T03:48:24.561Z,1.0
2023-05-03T04:00:24.786Z,0.6
2023-05-03T04:12:24.423Z,0.7
2023-05-03T04:24:24.425Z,0.8
2023-05-03T04:36:24.552Z,1.1
2023-05-03T04:48:24.428Z,1.6
2023-05-03T05:00:24.499Z,1.0
2023-05-03T05:12:24.430Z,1.1
2023-05-03T05:24:24.518Z,1.5
2023-05-03T05:36:24.531Z,2.2
2023-05-03T05:48:24.421Z,3.7
2023-05-03T06:00:24.461Z,5.2
2023-05-03T06:12:24.541Z,6.5
2023-05-03T06:24:24.546Z,7.5
2023-05-03T06:36:24.507Z,7.9
2023-05-03T06:48:24.620Z,8.3
2023-05-03T07:00:24.413Z,8.6
2023-05-03T07:12:24.438Z,9.0
2023-05-03T07:24:24.524Z,8.9
2023-05-03T07:36:24.546Z,9.6
2023-05-03T07:48:24.534Z,9.7
2023-05-03T08:00:24.482Z,9.9
2023-05-03T08:12:24.433Z,9.8
2023-05-03T08:24:24.509Z,10.0
2023-05-03T08:36:24.433Z,11.3
2023-05-03T08:48:24.436Z,11.3
2023-05-03T09:00:24.426Z,10.8
2023-05-03T09:12:24.548Z,12.6
2023-05-03T09:24:24.542Z,12.1
2023-05-03T09:36:24.435Z,12.4
2023-05-03T09:48:24.412Z,11.3
2023-05-03T10:00:24.529Z,12.3
2023-05-03T10:12:24.514Z,12.6
2023-05-03T10:24:24.485Z,13.0
2023-05-03T10:36:25.998Z,13.2
2023-05-03T10:48:24.529Z,13.0
2023-05-03T11:00:24.426Z,13.4
2023-05-03T11:12:24.461Z,13.5
2023-05-03T11:24:24.500Z,14.0
2023-05-03T11:36:24.523Z,14.3
2023-05-03T11:48:24.524Z,14.1
2023-05-03T12:00:24.501Z,15.2
2023-05-03T12:12:29.538Z,15.0
2023-05-03T12:24:24.866Z,15.1
2023-05-03T12:36:26.241Z,15.6
2023-05-03T12:48:24.668Z,15.1
2023-05-03T13:00:25.708Z,15.3
2023-05-03T13:12:24.422Z,15.1
2023-05-03T13:24:24.531Z,15.8
2023-05-03T13:36:24.450Z,15.4
2023-05-03T13:48:24.468Z,16.0
2023-05-03T14:00:24.421Z,15.8
2023-05-03T14:12:24.478Z,16.2
2023-05-03T14:24:24.442Z,16.0
2023-05-03T14:36:24.457Z,15.9
2023-05-03T14:48:24.449Z,15.9
2023-05-03T15:00:24.521Z,15.9
2023-05-03T15:12:24.537Z,16.1
2023-05-03T15:24:24.562Z,16.0
2023-05-03T15:36:24.528Z,16.1
2023-05-03T15:48:24.463Z,16.2
2023-05-03T16:00:24.540Z,15.9
2023-05-03T16:12:24.558Z,15.8
2023-05-03T16:24:24.547Z,15.6
2023-05-03T16:36:24.541Z,15.6
2023-05-03T16:48:24.537Z,15.4
2023-05-03T17:00:24.413Z,15.3
2023-05-03T17:12:24.517Z,15.2
2023-05-03T17:24:24.521Z,14.7
2023-05-03T17:36:24.421Z,14.6
2023-05-03T17:48:24.417Z,14.1
2023-05-03T18:00:24.501Z,13.6
2023-05-03T18:12:24.483Z,13.3
2023-05-03T18:24:24.508Z,12.7
2023-05-03T18:36:24.533Z,12.4
2023-05-03T18:48:24.490Z,11.8
2023-05-03T19:00:24.509Z,11.3
2023-05-03T19:12:24.531Z,11.0
2023-05-03T19:24:24.434Z,10.7
2023-05-03T19:36:24.522Z,10.9
2023-05-03T19:48:24.493Z,11.2
2023-05-03T20:00:24.556Z,11.1
2023-05-03T20:12:24.516Z,11.5
2023-05-03T20:24:24.556Z,11.1
2023-05-03T20:36:24.545Z,10.7
2023-05-03T20:48:24.451Z,10.3
2023-05-03T21:00:24.549Z,9.7
2023-05-03T21:12:24.465Z,8.8
2023-05-03T21:24:24.529Z,9.3
2023-05-03T21:36:24.519Z,9.3
2023-05-03T21:48:24.531Z,9.3
2023-05-03T22:00:24.421Z,9.2
2023-05-03T22:12:25.177Z,9.4
2023-05-03T22:24:24.427Z,9.0
2023-05-03T22:36:24.526Z,9.0
2023-05-03T22:48:24.525Z,8.5
2023-05-03T23:00:24.422Z,8.3
2023-05-03T23:12:24.476Z,8.3
2023-05-03T23:24:24.529Z,8.3
2023-05-03T23:36:24.554Z,8.0
2023-05-03T23:48:24.434Z,7.9
